Detroit, Michigan
Traffic Map
Current Weather Conditions
Detroit, Michigan
Overcast Light Snow
Overcast
28°
Feels Like: 17°
Wind Chill: 17° Ceiling: 1700
Heat Index: 28° Visibility: 2mi
Dew Point: 27° Wind: 14mph
Humidity: 93% Direction: 280° (W)
Pressure: 29.62in Gusts: 21mph
Raw Report DataCYQG 092200Z 28012G18KT 2SM -SN FEW009 OVC017 M02/M03 A2962 RMK SF2SC6 /S01/ SLP039
Traffic Incident Summary
Active as of:
Severity:
Category:
InformationThere was an issue retrieving the traffic information for this location. Please try a different location or try again shortly.
Advertisements
Track Severe Weather on mobile